Time;durP1;ratioP1;P1;durP2;ratioP2;P2;SDS_P1;SDS_P2;PMS_P1;PMS_P2;Temp;Humidity;BMP_temperature;BMP_pressure;BME280_temperature;BME280_humidity;BME280_pressure;Samples;Min_cycle;Max_cycle;Signal;HPM_P1;HPM_P2
2023/11/29 00:01:12;;;;;;;23.48;10.30;;;;;;;-0.47;100.00;100193.34;4994279;28;20042;-72
2023/11/29 00:03:38;;;;;;;24.95;10.55;;;;;;;-0.47;100.00;100190.78;5007436;28;20042;-71
2023/11/29 00:06:04;;;;;;;20.95;10.40;;;;;;;-0.48;100.00;100175.59;5009897;28;20045;-72
2023/11/29 00:08:29;;;;;;;20.33;9.85;;;;;;;-0.43;100.00;100176.13;4993415;28;20030;-72
2023/11/29 00:10:55;;;;;;;27.13;10.63;;;;;;;-0.48;100.00;100181.50;5007691;28;20109;-72
2023/11/29 00:13:20;;;;;;;21.33;9.88;;;;;;;-0.43;100.00;100183.78;5008791;28;20037;-72
2023/11/29 00:15:46;;;;;;;18.80;9.85;;;;;;;-0.42;100.00;100182.84;5003499;28;20089;-72
2023/11/29 00:18:13;;;;;;;20.30;10.10;;;;;;;-0.45;100.00;100178.78;4991464;28;20029;-73
2023/11/29 00:20:38;;;;;;;21.38;9.40;;;;;;;-0.36;100.00;100184.16;5009939;28;20038;-72
2023/11/29 00:23:04;;;;;;;21.67;10.18;;;;;;;-0.45;100.00;100178.78;5006728;28;20026;-72
2023/11/29 00:25:29;;;;;;;21.02;10.13;;;;;;;-0.39;100.00;100177.56;5011231;28;20567;-72
2023/11/29 00:27:54;;;;;;;22.27;10.70;;;;;;;-0.40;100.00;100170.81;5012491;28;20034;-72
2023/11/29 00:30:20;;;;;;;19.30;10.57;;;;;;;-0.30;100.00;100173.56;5011186;28;20033;-73
2023/11/29 00:32:45;;;;;;;20.42;9.75;;;;;;;-0.32;100.00;100168.59;5004201;28;20077;-72
2023/11/29 00:35:11;;;;;;;23.02;11.10;;;;;;;-0.35;100.00;100166.25;5009770;28;20691;-72
2023/11/29 00:37:36;;;;;;;24.95;10.32;;;;;;;-0.39;100.00;100157.16;5006803;28;20034;-72
2023/11/29 00:40:02;;;;;;;20.42;9.68;;;;;;;-0.21;100.00;100155.97;5012385;28;20087;-72
2023/11/29 00:42:27;;;;;;;18.50;9.75;;;;;;;-0.25;100.00;100149.41;5018281;28;20116;-72
2023/11/29 00:44:53;;;;;;;19.80;9.48;;;;;;;-0.12;100.00;100146.88;5010462;28;20652;-72
2023/11/29 00:47:19;;;;;;;18.33;9.60;;;;;;;-0.04;100.00;100144.63;4997624;28;20045;-72
2023/11/29 00:49:45;;;;;;;24.45;9.07;;;;;;;-0.02;100.00;100152.16;4996487;28;20030;-72
2023/11/29 00:52:11;;;;;;;22.25;8.98;;;;;;;0.01;100.00;100141.75;5017255;28;20041;-72
2023/11/29 00:54:37;;;;;;;17.98;9.00;;;;;;;-0.01;100.00;100136.75;5014870;28;20025;-72
2023/11/29 00:57:02;;;;;;;21.63;9.88;;;;;;;-0.09;100.00;100123.72;5013025;28;20032;-72
2023/11/29 00:59:28;;;;;;;21.13;9.38;;;;;;;-0.15;100.00;100121.59;5013407;28;20032;-72
2023/11/29 01:01:53;;;;;;;18.55;9.20;;;;;;;-0.12;100.00;100123.94;5008673;28;20072;-72
2023/11/29 01:04:19;;;;;;;25.23;10.93;;;;;;;-0.17;100.00;100113.25;5014458;28;20042;-72
2023/11/29 01:06:44;;;;;;;17.92;9.55;;;;;;;-0.17;100.00;100115.78;5007378;28;20045;-72
2023/11/29 01:09:10;;;;;;;21.98;9.80;;;;;;;-0.15;100.00;100100.38;5005490;28;20033;-72
2023/11/29 01:11:35;;;;;;;21.38;9.70;;;;;;;-0.17;100.00;100099.66;5007957;28;20037;-74
2023/11/29 01:14:01;;;;;;;21.10;10.23;;;;;;;-0.12;100.00;100088.25;5008949;28;20034;-75
2023/11/29 01:16:26;;;;;;;20.30;9.45;;;;;;;-0.04;100.00;100090.25;5004626;28;20053;-73
2023/11/29 01:18:53;;;;;;;21.20;9.98;;;;;;;-0.05;100.00;100089.47;4988964;28;20531;-73
2023/11/29 01:21:18;;;;;;;19.52;8.88;;;;;;;-0.11;100.00;100096.72;5008132;28;20080;-74
2023/11/29 01:23:44;;;;;;;22.13;9.57;;;;;;;-0.25;100.00;100090.00;5013052;28;20037;-73
2023/11/29 01:26:09;;;;;;;18.65;9.55;;;;;;;-0.10;100.00;100086.41;5007503;28;20514;-73
2023/11/29 01:28:36;;;;;;;21.20;10.00;;;;;;;-0.13;100.00;100093.44;4997488;28;20072;-74
2023/11/29 01:31:08;;;;;;;23.73;9.80;;;;;;;-0.21;100.00;100089.69;5014627;28;20610;-74
2023/11/29 01:33:34;;;;;;;21.45;10.25;;;;;;;-0.12;100.00;100080.59;5011077;28;20087;-73
2023/11/29 01:36:10;;;;;;;21.48;9.48;;;;;;;-0.13;100.00;100080.69;5011868;28;20029;-73
2023/11/29 01:38:38;;;;;;;25.90;9.70;;;;;;;-0.24;100.00;100076.34;4994069;28;20115;-74
2023/11/29 01:41:03;;;;;;;21.35;10.43;;;;;;;-0.12;100.00;100070.41;5009617;28;20037;-73
2023/11/29 01:43:30;;;;;;;19.67;9.70;;;;;;;-0.06;100.00;100070.00;5035538;28;20037;-73
2023/11/29 01:45:56;;;;;;;21.50;9.90;;;;;;;-0.15;100.00;100077.44;5009199;28;20041;-73
2023/11/29 01:48:22;;;;;;;24.27;10.63;;;;;;;-0.24;100.00;100066.16;5011541;28;20033;-74
2023/11/29 01:50:49;;;;;;;25.10;10.25;;;;;;;-0.15;100.00;100073.19;5007985;28;20061;-74
2023/11/29 01:53:17;;;;;;;22.27;10.70;;;;;;;-0.31;100.00;100083.56;4999976;28;20055;-74
2023/11/29 01:55:48;;;;;;;20.73;9.93;;;;;;;-0.15;100.00;100075.72;5011130;28;20026;-74
2023/11/29 01:58:14;;;;;;;23.88;9.98;;;;;;;-0.23;100.00;100083.91;5014889;28;20041;-75
2023/11/29 02:00:39;;;;;;;26.25;11.57;;;;;;;-0.30;100.00;100069.94;5013889;28;20025;-74
2023/11/29 02:03:05;;;;;;;23.25;10.32;;;;;;;-0.20;100.00;100075.22;5010290;28;21567;-74
2023/11/29 02:05:30;;;;;;;21.17;10.25;;;;;;;-0.33;100.00;100076.97;5011697;28;20060;-74
2023/11/29 02:07:56;;;;;;;27.83;11.07;;;;;;;-0.38;100.00;100067.06;5014880;28;20062;-73
2023/11/29 02:10:22;;;;;;;23.83;10.80;;;;;;;-0.37;100.00;100063.63;5010491;28;20124;-74
2023/11/29 02:12:47;;;;;;;23.65;10.80;;;;;;;-0.43;100.00;100069.94;5023425;28;20032;-73
2023/11/29 02:15:13;;;;;;;24.65;12.02;;;;;;;-0.35;100.00;100060.97;5012178;28;20517;-73
2023/11/29 02:17:38;;;;;;;28.33;11.23;;;;;;;-0.30;100.00;100064.00;5009374;28;20061;-73
2023/11/29 02:20:04;;;;;;;20.75;9.65;;;;;;;-0.28;100.00;100060.44;5019954;28;20102;-73
2023/11/29 02:22:31;;;;;;;21.80;10.43;;;;;;;-0.24;100.00;100049.13;4993037;28;20097;-74
2023/11/29 02:24:57;;;;;;;30.63;11.02;;;;;;;-0.33;100.00;100049.75;4994155;28;20037;-74
2023/11/29 02:27:23;;;;;;;25.55;10.88;;;;;;;-0.26;100.00;100042.50;5010793;28;20539;-74
2023/11/29 02:29:49;;;;;;;22.38;10.93;;;;;;;-0.30;100.00;100041.06;5009957;28;20072;-73
2023/11/29 02:32:14;;;;;;;25.52;10.55;;;;;;;-0.24;100.00;100036.38;5014785;28;20053;-72
2023/11/29 02:34:40;;;;;;;23.60;11.02;;;;;;;-0.12;100.00;100031.34;5008549;28;20455;-74
2023/11/29 02:37:05;;;;;;;23.80;10.50;;;;;;;-0.16;100.00;100015.47;5007424;28;20038;-74
2023/11/29 02:39:31;;;;;;;23.60;11.70;;;;;;;-0.11;100.00;100015.97;5007923;28;20045;-74
2023/11/29 02:41:56;;;;;;;30.75;10.65;;;;;;;-0.12;100.00;100021.16;5015584;28;20637;-74
2023/11/29 02:44:23;;;;;;;28.70;11.30;;;;;;;-0.14;100.00;100012.81;5011404;28;20025;-75
2023/11/29 02:46:49;;;;;;;27.20;11.55;;;;;;;-0.19;100.00;100018.22;5011607;28;20045;-75
2023/11/29 02:49:16;;;;;;;25.40;11.93;;;;;;;-0.04;100.00;100001.03;5009606;28;20029;-74
2023/11/29 02:51:41;;;;;;;23.60;10.32;;;;;;;-0.11;100.00;100010.88;5007649;28;20394;-74
2023/11/29 02:54:07;;;;;;;23.98;11.13;;;;;;;-0.11;100.00;100010.06;5009401;28;20519;-74
2023/11/29 02:56:32;;;;;;;24.63;10.93;;;;;;;0.00;100.00;100002.50;4997999;28;20036;-73
2023/11/29 02:58:57;;;;;;;23.48;11.90;;;;;;;0.01;100.00;99995.66;5012820;28;20508;-74
2023/11/29 03:01:23;;;;;;;27.88;11.23;;;;;;;-0.01;100.00;99995.75;5006589;28;20107;-74
2023/11/29 03:03:48;;;;;;;31.05;11.68;;;;;;;0.17;100.00;99989.34;4989803;28;20041;-74
2023/11/29 03:06:14;;;;;;;27.20;12.50;;;;;;;0.25;100.00;99993.09;5009448;28;20033;-74
2023/11/29 03:08:39;;;;;;;26.95;12.15;;;;;;;0.14;100.00;99997.22;5011591;28;20033;-74
2023/11/29 03:11:05;;;;;;;25.95;11.75;;;;;;;0.14;100.00;99981.09;5008138;28;20476;-72
2023/11/29 03:13:30;;;;;;;25.23;11.93;;;;;;;0.16;100.00;99984.34;4999303;28;20025;-73
2023/11/29 03:15:56;;;;;;;27.33;10.82;;;;;;;0.14;100.00;99976.81;5011396;28;20034;-73
2023/11/29 03:18:22;;;;;;;26.67;11.07;;;;;;;0.13;100.00;99975.19;5011356;28;20022;-74
2023/11/29 03:20:47;;;;;;;25.50;11.13;;;;;;;0.19;100.00;99974.75;5021268;28;21230;-74
2023/11/29 03:23:12;;;;;;;26.90;11.77;;;;;;;0.18;100.00;99973.13;4991457;28;20235;-73
2023/11/29 03:25:38;;;;;;;25.50;12.63;;;;;;;0.18;100.00;99977.41;5006921;28;20034;-73
2023/11/29 03:28:04;;;;;;;26.33;12.43;;;;;;;0.33;100.00;99983.16;4993866;28;20531;-73
2023/11/29 03:30:30;;;;;;;25.58;12.65;;;;;;;0.36;100.00;99998.25;5007312;28;20026;-73
2023/11/29 03:32:56;;;;;;;26.40;10.90;;;;;;;0.35;100.00;99994.06;5006815;28;20053;-73
2023/11/29 03:35:21;;;;;;;23.95;11.43;;;;;;;0.52;100.00;99995.41;5007108;28;20484;-74
2023/11/29 03:37:47;;;;;;;28.00;11.45;;;;;;;0.43;100.00;99998.63;5010229;28;21202;-73
2023/11/29 03:40:12;;;;;;;25.02;11.15;;;;;;;0.42;100.00;100000.34;5008456;28;20034;-73
2023/11/29 03:42:38;;;;;;;25.48;11.75;;;;;;;0.32;100.00;100002.75;5006629;28;20041;-73
2023/11/29 03:45:04;;;;;;;72.35;22.10;;;;;;;0.38;100.00;99986.19;4987284;28;20138;-74
2023/11/29 03:47:30;;;;;;;229.30;66.15;;;;;;;0.37;100.00;99994.75;5010037;28;20049;-73
2023/11/29 03:49:55;;;;;;;94.22;31.60;;;;;;;0.30;100.00;99975.72;5009719;28;20409;-74
2023/11/29 03:52:22;;;;;;;73.13;25.73;;;;;;;0.27;100.00;99975.97;5009833;28;20428;-73
2023/11/29 03:54:48;;;;;;;93.97;32.63;;;;;;;0.15;100.00;99975.06;5009673;28;20065;-73
2023/11/29 03:57:13;;;;;;;86.85;33.60;;;;;;;0.11;100.00;99973.66;5025562;28;20038;-73
2023/11/29 03:59:38;;;;;;;56.05;22.90;;;;;;;0.11;100.00;99966.00;5006894;28;20484;-73
2023/11/29 04:02:04;;;;;;;68.60;27.75;;;;;;;0.13;100.00;99974.38;5008641;28;20034;-73
2023/11/29 04:04:29;;;;;;;57.83;22.45;;;;;;;0.01;100.00;99970.97;5006383;28;20034;-74
2023/11/29 04:06:55;;;;;;;97.57;36.55;;;;;;;-0.06;100.00;99965.50;5009500;28;20510;-73
2023/11/29 04:09:20;;;;;;;75.68;27.00;;;;;;;-0.07;100.00;99956.19;4996763;28;20036;-73
2023/11/29 04:11:46;;;;;;;58.13;21.27;;;;;;;-0.11;100.00;99956.53;5010677;28;20030;-73
2023/11/29 04:14:12;;;;;;;44.00;18.25;;;;;;;-0.12;100.00;99954.91;5006547;28;21187;-74
2023/11/29 04:16:37;;;;;;;54.35;22.70;;;;;;;-0.12;100.00;99945.50;5010860;28;20102;-72
2023/11/29 04:19:03;;;;;;;36.03;16.85;;;;;;;-0.16;100.00;99931.38;5013026;28;20034;-72
2023/11/29 04:21:33;;;;;;;36.90;16.67;;;;;;;-0.26;100.00;99922.75;5011764;28;20037;-73
2023/11/29 04:23:59;;;;;;;33.58;14.18;;;;;;;-0.25;100.00;99911.63;5014260;28;20425;-73
2023/11/29 04:26:29;;;;;;;54.03;23.00;;;;;;;-0.30;100.00;99896.66;5012532;28;20029;-73
2023/11/29 04:28:59;;;;;;;56.77;23.07;;;;;;;-0.27;100.00;99909.16;5001387;28;20061;-73
2023/11/29 04:31:25;;;;;;;32.35;14.43;;;;;;;-0.34;100.00;99895.25;4995883;28;20056;-73
2023/11/29 04:33:51;;;;;;;31.77;14.25;;;;;;;-0.25;100.00;99886.94;5013766;28;20073;-72
2023/11/29 04:36:17;;;;;;;34.92;17.27;;;;;;;-0.29;100.00;99884.72;4994974;28;20033;-72
2023/11/29 04:38:43;;;;;;;34.60;15.15;;;;;;;-0.25;100.00;99884.41;5005790;28;20030;-72
2023/11/29 04:41:10;;;;;;;31.33;14.93;;;;;;;-0.25;100.00;99871.66;5005935;28;20109;-72
2023/11/29 04:43:35;;;;;;;34.97;14.93;;;;;;;-0.23;100.00;99872.38;5011307;28;20526;-72
2023/11/29 04:46:01;;;;;;;36.50;15.05;;;;;;;-0.25;100.00;99863.19;5010685;28;20084;-72
2023/11/29 04:48:26;;;;;;;36.17;14.98;;;;;;;-0.23;100.00;99858.81;5012527;28;20092;-72
2023/11/29 04:50:51;;;;;;;31.77;14.80;;;;;;;-0.22;100.00;99857.91;5010347;28;20409;-72
2023/11/29 04:53:17;;;;;;;41.50;14.85;;;;;;;-0.28;100.00;99858.34;5013314;28;20037;-72
2023/11/29 04:55:43;;;;;;;34.55;14.68;;;;;;;-0.24;100.00;99859.75;5013370;28;20396;-72
2023/11/29 04:58:08;;;;;;;35.60;15.73;;;;;;;-0.17;100.00;99867.75;5016457;28;20041;-72
2023/11/29 05:00:33;;;;;;;33.58;14.40;;;;;;;-0.13;100.00;99859.78;5025586;28;20037;-72
2023/11/29 05:02:59;;;;;;;43.10;15.32;;;;;;;-0.10;100.00;99856.19;5012604;28;20043;-71
2023/11/29 05:05:24;;;;;;;41.00;15.68;;;;;;;-0.06;100.00;99852.50;5017110;28;20030;-71
2023/11/29 05:07:53;;;;;;;36.65;15.85;;;;;;;0.00;100.00;99846.97;5015738;28;20033;-72
2023/11/29 05:10:19;;;;;;;38.10;15.02;;;;;;;-0.13;100.00;99854.69;5013240;28;20046;-72
2023/11/29 05:12:44;;;;;;;36.83;15.38;;;;;;;-0.06;100.00;99845.69;5013171;28;20030;-71
2023/11/29 05:15:09;;;;;;;39.75;15.32;;;;;;;-0.06;100.00;99847.41;5010791;28;20045;-72
2023/11/29 05:17:35;;;;;;;36.22;16.52;;;;;;;-0.07;100.00;99854.25;5015074;28;20034;-73
2023/11/29 05:20:01;;;;;;;39.17;15.45;;;;;;;-0.02;100.00;99847.09;5011355;28;20128;-72
2023/11/29 05:22:26;;;;;;;32.53;15.18;;;;;;;0.07;100.00;99845.59;5014272;28;20505;-73
2023/11/29 05:24:51;;;;;;;37.38;15.07;;;;;;;0.09;100.00;99848.84;5018345;28;20036;-75
2023/11/29 05:27:17;;;;;;;36.60;15.32;;;;;;;0.07;100.00;99844.78;5010078;28;20034;-73
2023/11/29 05:29:42;;;;;;;35.42;14.90;;;;;;;0.07;100.00;99837.94;5008552;28;20371;-73
2023/11/29 05:32:08;;;;;;;38.00;15.35;;;;;;;0.14;100.00;99839.13;5014602;28;20476;-73
2023/11/29 05:34:34;;;;;;;39.75;14.98;;;;;;;0.11;100.00;99839.34;5010144;28;20030;-73
2023/11/29 05:37:00;;;;;;;41.42;15.50;;;;;;;0.21;100.00;99834.41;5017317;28;20480;-73
2023/11/29 05:39:25;;;;;;;35.58;15.10;;;;;;;0.12;100.00;99842.72;5009154;28;20049;-73
2023/11/29 05:41:51;;;;;;;36.72;14.38;;;;;;;0.13;100.00;99847.72;5011805;28;20414;-74
2023/11/29 05:44:16;;;;;;;41.17;15.88;;;;;;;0.24;100.00;99838.44;5028702;28;20056;-73
2023/11/29 05:46:42;;;;;;;35.00;15.82;;;;;;;0.22;100.00;99838.56;5021586;28;20037;-74
2023/11/29 05:49:08;;;;;;;37.72;15.10;;;;;;;0.25;100.00;99833.25;5014591;28;20025;-72
2023/11/29 05:51:35;;;;;;;39.92;14.43;;;;;;;0.21;100.00;99831.03;5009404;28;20124;-73
2023/11/29 05:54:00;;;;;;;42.30;14.25;;;;;;;0.18;100.00;99821.88;5010996;28;20160;-74
2023/11/29 05:56:27;;;;;;;40.67;14.95;;;;;;;0.18;100.00;99820.13;5005331;28;20038;-74
2023/11/29 05:58:55;;;;;;;34.28;15.23;;;;;;;0.17;100.00;99818.50;5012475;28;20064;-73
2023/11/29 06:01:21;;;;;;;35.38;14.30;;;;;;;0.22;100.00;99814.81;5016314;28;20839;-73
2023/11/29 06:03:46;;;;;;;34.17;14.32;;;;;;;0.17;100.00;99818.50;5007865;28;20048;-73
2023/11/29 06:06:13;;;;;;;34.22;14.80;;;;;;;0.17;100.00;99807.47;5009120;28;20036;-73
2023/11/29 06:08:40;;;;;;;30.02;13.63;;;;;;;0.15;100.00;99812.72;5009637;28;20121;-72
2023/11/29 06:11:07;;;;;;;38.60;15.38;;;;;;;0.23;100.00;99809.59;5010586;28;20034;-73
2023/11/29 06:13:36;;;;;;;45.60;17.73;;;;;;;0.23;100.00;99813.88;5008115;28;20044;-73
2023/11/29 06:16:01;;;;;;;38.35;14.10;;;;;;;0.35;100.00;99818.88;5010843;28;20037;-73
2023/11/29 06:18:28;;;;;;;29.02;13.40;;;;;;;0.48;100.00;99817.97;5013482;28;20428;-73
2023/11/29 06:20:53;;;;;;;31.90;14.57;;;;;;;0.32;100.00;99819.13;5011324;28;20042;-73
2023/11/29 06:23:19;;;;;;;30.90;13.60;;;;;;;0.38;100.00;99816.09;5014518;28;20369;-73
2023/11/29 06:25:44;;;;;;;31.05;14.65;;;;;;;0.50;100.00;99811.00;4988518;28;20034;-73
2023/11/29 06:28:10;;;;;;;28.60;13.13;;;;;;;0.43;100.00;99814.94;5010875;28;20041;-73
2023/11/29 06:30:35;;;;;;;25.30;12.25;;;;;;;0.47;100.00;99811.22;5011468;28;20033;-72
2023/11/29 06:33:01;;;;;;;34.90;14.15;;;;;;;0.49;100.00;99825.53;5010060;28;20045;-75
2023/11/29 06:35:26;;;;;;;29.33;13.27;;;;;;;0.59;100.00;99815.44;5010613;28;20033;-74
2023/11/29 06:37:51;;;;;;;28.98;12.90;;;;;;;0.62;100.00;99811.81;5006277;28;20033;-75
2023/11/29 06:40:17;;;;;;;28.20;12.40;;;;;;;0.69;100.00;99815.53;5008398;28;20038;-73
2023/11/29 06:42:43;;;;;;;31.23;12.45;;;;;;;0.68;100.00;99819.84;4990262;28;20080;-73
2023/11/29 06:45:12;;;;;;;29.00;13.85;;;;;;;0.73;100.00;99830.50;5010131;28;20488;-73
2023/11/29 06:47:38;;;;;;;31.48;13.15;;;;;;;0.68;100.00;99809.63;4990928;28;20024;-73
2023/11/29 06:50:04;;;;;;;40.22;15.93;;;;;;;0.64;100.00;99813.34;5011033;28;20527;-73
2023/11/29 06:52:30;;;;;;;29.15;13.20;;;;;;;0.64;100.00;99820.16;5009632;28;20100;-73
2023/11/29 06:54:56;;;;;;;34.03;12.45;;;;;;;0.61;100.00;99828.06;5009702;28;20519;-74
2023/11/29 06:57:22;;;;;;;30.55;13.50;;;;;;;0.57;100.00;99822.38;5010084;28;20022;-74
2023/11/29 06:59:48;;;;;;;26.88;13.07;;;;;;;0.78;100.00;99818.19;4988491;28;20053;-73
2023/11/29 07:02:13;;;;;;;24.65;12.60;;;;;;;0.79;100.00;99826.66;5006335;28;20488;-73
2023/11/29 07:04:42;;;;;;;28.95;12.75;;;;;;;0.78;100.00;99813.09;5011643;28;20101;-73
2023/11/29 07:07:08;;;;;;;27.95;12.55;;;;;;;0.78;100.00;99823.31;5007436;28;20079;-73
2023/11/29 07:09:33;;;;;;;27.80;11.73;;;;;;;0.69;100.00;99826.56;5006221;28;20566;-73
2023/11/29 07:11:59;;;;;;;24.85;12.23;;;;;;;0.82;100.00;99829.00;5006632;28;20033;-72
2023/11/29 07:14:24;;;;;;;27.02;12.02;;;;;;;0.79;100.00;99819.00;5009878;28;20030;-73
2023/11/29 07:16:50;;;;;;;36.88;14.32;;;;;;;0.76;100.00;99827.72;5004531;28;20045;-73
2023/11/29 07:19:16;;;;;;;30.60;13.32;;;;;;;0.68;100.00;99822.41;5008544;28;20511;-73
2023/11/29 07:21:42;;;;;;;56.00;24.02;;;;;;;0.67;100.00;99823.31;5009580;28;20049;-73
2023/11/29 07:24:07;;;;;;;29.05;13.57;;;;;;;0.71;100.00;99816.22;5006544;28;20034;-73
2023/11/29 07:26:32;;;;;;;50.80;24.38;;;;;;;0.66;100.00;99819.16;5002066;28;20049;-73
2023/11/29 07:28:58;;;;;;;32.42;14.25;;;;;;;0.69;100.00;99820.66;5010634;28;20034;-73
2023/11/29 07:31:23;;;;;;;35.05;16.52;;;;;;;0.62;100.00;99827.94;5014105;28;20044;-74
2023/11/29 07:33:50;;;;;;;31.95;16.00;;;;;;;0.61;100.00;99836.53;5010802;28;20038;-74
2023/11/29 07:36:15;;;;;;;45.28;21.83;;;;;;;0.61;100.00;99826.34;5002221;28;20053;-74
2023/11/29 07:38:41;;;;;;;37.30;18.98;;;;;;;0.67;100.00;99830.16;4988696;28;20026;-73
2023/11/29 07:41:06;;;;;;;59.15;32.00;;;;;;;0.71;100.00;99834.09;5005592;28;20551;-73
2023/11/29 07:43:32;;;;;;;35.17;15.73;;;;;;;0.78;100.00;99832.72;5007964;28;20677;-73
2023/11/29 07:45:57;;;;;;;45.63;20.30;;;;;;;0.71;100.00;99826.44;5012096;28;20042;-73
2023/11/29 07:48:24;;;;;;;45.30;23.67;;;;;;;0.71;100.00;99829.00;5011550;28;20038;-74
2023/11/29 07:50:50;;;;;;;60.88;25.45;;;;;;;0.78;100.00;99828.41;5010391;28;20493;-74
2023/11/29 07:53:16;;;;;;;56.10;25.70;;;;;;;0.87;100.00;99828.66;5014530;28;20040;-73
2023/11/29 07:55:42;;;;;;;32.95;17.65;;;;;;;0.79;100.00;99826.66;4993004;28;20035;-73
2023/11/29 07:58:07;;;;;;;34.88;16.65;;;;;;;0.95;100.00;99831.44;5014097;28;20572;-75
2023/11/29 08:00:33;;;;;;;37.97;17.63;;;;;;;0.85;100.00;99833.03;5016867;28;20463;-74
2023/11/29 08:02:59;;;;;;;31.13;15.10;;;;;;;0.88;100.00;99827.72;5007952;28;20026;-74
2023/11/29 08:05:27;;;;;;;27.27;14.02;;;;;;;0.87;100.00;99823.56;5009882;28;20052;-74
2023/11/29 08:07:56;;;;;;;25.40;12.48;;;;;;;0.92;100.00;99829.09;5011000;28;20088;-74
2023/11/29 08:10:22;;;;;;;27.23;14.57;;;;;;;1.03;100.00;99839.31;5002926;28;20916;-75
2023/11/29 08:12:48;;;;;;;33.83;13.23;;;;;;;1.04;100.00;99842.69;5005084;28;20041;-74
2023/11/29 08:15:13;;;;;;;24.52;12.82;;;;;;;0.97;100.00;99847.44;5007168;28;20513;-74
2023/11/29 08:17:39;;;;;;;31.17;16.38;;;;;;;1.03;100.00;99838.50;5006615;28;20056;-73
2023/11/29 08:20:07;;;;;;;29.80;14.65;;;;;;;1.09;100.00;99850.78;5007821;28;20120;-73
2023/11/29 08:22:33;;;;;;;27.17;11.48;;;;;;;1.08;100.00;99854.28;5004107;28;20129;-73
2023/11/29 08:24:59;;;;;;;27.75;11.82;;;;;;;1.14;100.00;99844.41;4999375;28;20038;-73
2023/11/29 08:27:25;;;;;;;29.90;14.75;;;;;;;1.12;100.00;99853.91;5002298;28;20037;-73
2023/11/29 08:29:54;;;;;;;26.67;13.18;;;;;;;1.19;100.00;99858.53;5003982;28;20043;-73
2023/11/29 08:32:19;;;;;;;22.20;11.32;;;;;;;1.16;100.00;99862.16;5005960;28;20037;-73
2023/11/29 08:34:45;;;;;;;28.02;13.48;;;;;;;1.16;100.00;99862.16;5018199;28;20022;-73
2023/11/29 08:37:11;;;;;;;21.88;11.82;;;;;;;1.19;100.00;99861.09;5012447;28;20125;-74
2023/11/29 08:39:36;;;;;;;26.08;11.38;;;;;;;1.15;100.00;99868.22;5014521;28;20445;-73
2023/11/29 08:42:03;;;;;;;23.73;12.30;;;;;;;1.24;100.00;99869.22;4992292;28;20041;-73
2023/11/29 08:44:29;;;;;;;27.67;12.85;;;;;;;1.33;100.00;99868.53;5013393;28;20484;-73
2023/11/29 08:46:54;;;;;;;21.00;11.45;;;;;;;1.41;100.00;99870.47;4996838;28;20038;-73
2023/11/29 08:49:20;;;;;;;24.60;11.50;;;;;;;1.48;100.00;99882.66;5011963;28;20025;-73
2023/11/29 08:51:45;;;;;;;23.63;11.95;;;;;;;1.49;100.00;99884.28;5009388;28;20096;-73
2023/11/29 08:54:11;;;;;;;26.65;12.77;;;;;;;1.45;100.00;99879.53;5008480;28;20602;-74
2023/11/29 08:56:36;;;;;;;22.63;11.25;;;;;;;1.49;100.00;99886.03;5006390;28;20034;-74
2023/11/29 08:59:04;;;;;;;24.38;13.65;;;;;;;1.55;100.00;99890.66;5009419;28;20035;-73
2023/11/29 09:01:31;;;;;;;27.25;12.63;;;;;;;1.52;100.00;99899.34;5008822;28;20049;-73
2023/11/29 09:03:58;;;;;;;25.02;13.10;;;;;;;1.54;100.00;99902.63;5007732;28;20106;-74
2023/11/29 09:06:23;;;;;;;21.58;11.18;;;;;;;1.48;100.00;99907.41;5011116;28;20506;-73
2023/11/29 09:08:50;;;;;;;20.73;9.73;;;;;;;1.42;100.00;99911.25;4990861;28;20125;-74
2023/11/29 09:11:16;;;;;;;25.17;13.27;;;;;;;1.40;100.00;99910.53;5005558;28;20817;-74
2023/11/29 09:13:43;;;;;;;22.48;12.00;;;;;;;1.33;100.00;99917.06;5001371;28;20029;-74
2023/11/29 09:16:08;;;;;;;18.10;9.73;;;;;;;1.33;100.00;99927.28;5010146;28;20066;-74
2023/11/29 09:18:34;;;;;;;18.77;9.98;;;;;;;1.35;100.00;99930.53;4992554;28;20040;-74
2023/11/29 09:21:00;;;;;;;21.17;11.60;;;;;;;1.35;100.00;99921.09;5006886;28;20049;-74
2023/11/29 09:23:26;;;;;;;17.92;10.43;;;;;;;1.34;100.00;99921.25;5005497;28;20060;-74
2023/11/29 09:25:51;;;;;;;23.30;9.77;;;;;;;1.32;100.00;99923.91;5004541;28;20456;-73
2023/11/29 09:28:17;;;;;;;21.00;9.70;;;;;;;1.33;100.00;99928.06;4989129;28;20022;-73
2023/11/29 09:30:44;;;;;;;93.80;35.78;;;;;;;1.34;100.00;99934.03;5003693;28;20755;-74
2023/11/29 09:33:10;;;;;;;47.45;18.95;;;;;;;1.30;100.00;99928.34;4991282;28;20065;-73
2023/11/29 09:35:35;;;;;;;70.22;25.08;;;;;;;1.35;100.00;99928.78;4999342;28;20061;-73
2023/11/29 09:38:01;;;;;;;30.75;15.88;;;;;;;1.46;100.00;99935.63;5011789;28;20484;-73
2023/11/29 09:40:27;;;;;;;40.65;17.92;;;;;;;1.61;100.00;99932.81;5011063;28;20045;-73
2023/11/29 09:42:53;;;;;;;45.03;19.35;;;;;;;1.57;100.00;99927.13;5007828;28;20038;-73
2023/11/29 09:45:25;;;;;;;27.63;14.35;;;;;;;1.57;100.00;99934.00;5009052;28;20079;-73
2023/11/29 09:47:51;;;;;;;21.77;11.15;;;;;;;1.65;100.00;99929.88;5010209;28;20042;-74
2023/11/29 09:50:19;;;;;;;27.30;13.13;;;;;;;1.60;100.00;99934.56;5006973;28;20126;-73
2023/11/29 09:52:46;;;;;;;21.73;12.68;;;;;;;1.63;100.00;99941.19;5003432;28;20034;-74
2023/11/29 09:55:12;;;;;;;19.95;10.48;;;;;;;1.53;100.00;99944.44;5006367;28;20030;-72
2023/11/29 09:57:37;;;;;;;18.42;10.35;;;;;;;1.52;100.00;99945.34;5006293;28;20405;-73
2023/11/29 10:00:10;;;;;;;23.25;12.02;;;;;;;1.59;100.00;99942.34;5008494;28;20037;-73
2023/11/29 10:02:38;;;;;;;19.58;11.98;;;;;;;1.61;100.00;99954.06;5007523;28;20049;-72
2023/11/29 10:05:03;;;;;;;22.42;10.63;;;;;;;1.70;100.00;99950.00;5012531;28;20120;-73
2023/11/29 10:07:29;;;;;;;24.85;12.98;;;;;;;1.86;100.00;99952.16;5007200;28;20563;-72
2023/11/29 10:10:00;;;;;;;28.40;15.90;;;;;;;2.06;100.00;99953.97;5003999;28;20049;-73
2023/11/29 10:12:27;;;;;;;25.67;14.45;;;;;;;2.00;100.00;99949.34;5009162;28;20495;-72
2023/11/29 10:14:54;;;;;;;16.90;10.25;;;;;;;2.07;100.00;99954.75;5004165;28;20116;-72
2023/11/29 10:17:20;;;;;;;14.68;9.13;;;;;;;2.07;100.00;99950.47;5003925;28;20044;-73
2023/11/29 10:19:46;;;;;;;14.45;8.75;;;;;;;2.07;100.00;99955.59;5004162;28;20408;-72
2023/11/29 10:22:16;;;;;;;19.70;11.10;;;;;;;2.11;100.00;99943.34;5002400;28;20037;-73
2023/11/29 10:24:42;;;;;;;16.23;9.63;;;;;;;2.12;100.00;99945.78;5008231;28;20035;-72
2023/11/29 10:27:11;;;;;;;18.50;9.35;;;;;;;2.24;100.00;99953.41;5010398;28;20376;-73
2023/11/29 10:29:36;;;;;;;17.90;9.02;;;;;;;2.32;100.00;99941.66;5009003;28;20033;-72
2023/11/29 10:32:08;;;;;;;19.60;11.02;;;;;;;2.28;100.00;99937.72;5005428;28;20033;-72
2023/11/29 10:34:34;;;;;;;16.70;10.10;;;;;;;2.37;100.00;99932.78;5001481;28;20037;-72
2023/11/29 10:37:02;;;;;;;21.02;10.20;;;;;;;2.50;100.00;99936.78;5003901;28;20026;-72
2023/11/29 10:39:31;;;;;;;17.05;10.57;;;;;;;2.42;100.00;99938.34;5003506;28;20037;-72
2023/11/29 10:41:59;;;;;;;18.90;10.88;;;;;;;2.42;100.00;99931.47;5008771;28;20427;-73
2023/11/29 10:44:29;;;;;;;20.45;9.35;;;;;;;2.46;100.00;99937.97;5004892;28;20041;-73
2023/11/29 10:47:03;;;;;;;15.35;9.57;;;;;;;2.46;100.00;99930.28;5004412;28;20064;-73
2023/11/29 10:49:37;;;;;;;17.10;9.10;;;;;;;2.45;100.00;99926.13;5009408;28;20120;-73
2023/11/29 10:52:04;;;;;;;13.13;9.05;;;;;;;2.59;100.00;99932.66;5001464;28;20044;-73
2023/11/29 10:54:30;;;;;;;17.27;9.93;;;;;;;2.67;100.00;99937.16;5005241;28;20037;-73
2023/11/29 10:56:56;;;;;;;43.75;20.65;;;;;;;2.55;100.00;99938.97;4997675;28;20037;-73
2023/11/29 10:59:26;;;;;;;59.50;24.65;;;;;;;2.57;100.00;99941.41;5009693;28;20497;-73
2023/11/29 11:01:55;;;;;;;34.80;18.83;;;;;;;2.68;100.00;99938.78;5007761;28;20049;-73
2023/11/29 11:04:22;;;;;;;20.85;11.73;;;;;;;2.70;100.00;99945.41;5004771;28;20034;-74
2023/11/29 11:06:51;;;;;;;21.42;13.00;;;;;;;2.67;100.00;99942.28;5005615;28;20041;-73
2023/11/29 11:09:31;;;;;;;25.02;17.63;;;;;;;2.62;100.00;99939.28;5006716;28;20041;-72